sensor_id;sensor_type;location;lat;lon;timestamp;pressure;altitude;pressure_sealevel;temperature;humidity
31162;BME280;17796;49.296;-117.656;2023-02-19T00:14:00;96200;;;3.95416;53.27424
31162;BME280;17796;49.296;-117.656;2023-02-19T00:29:05;96200;;;2.30436;58.09901
31162;BME280;17796;49.296;-117.656;2023-02-19T00:44:09;96200;;;2.9357;55.9885
31162;BME280;17796;49.296;-117.656;2023-02-19T00:59:15;96300;;;3.33933;53.86155
31162;BME280;17796;49.296;-117.656;2023-02-19T01:14:18;96300;;;2.90965;55.05206
31162;BME280;17796;49.296;-117.656;2023-02-19T01:29:22;96300;;;1.60762;58.89209
31162;BME280;17796;49.296;-117.656;2023-02-19T01:45:11;96300;;;1.27639;60.14739
31162;BME280;17796;49.296;-117.656;2023-02-19T02:00:24;96300;;;0.84355;60.76208
31162;BME280;17796;49.296;-117.656;2023-02-19T02:15:33;96300;;;1.20177;60.07733
31162;BME280;17796;49.296;-117.656;2023-02-19T02:30:42;96400;;;-0.15741;64.69818
31162;BME280;17796;49.296;-117.656;2023-02-19T02:45:48;96400;;;0.73494;60.62961
31162;BME280;17796;49.296;-117.656;2023-02-19T03:00:55;96400;;;0.42659;61.86501
31162;BME280;17796;49.296;-117.656;2023-02-19T03:16:06;96400;;;0.12459;64.22845
31162;BME280;17796;49.296;-117.656;2023-02-19T03:31:15;96400;;;-0.3797;66.73149
31162;BME280;17796;49.296;-117.656;2023-02-19T03:46:23;96400;;;-0.63756;67.64328
31162;BME280;17796;49.296;-117.656;2023-02-19T04:01:38;96400;;;0.78734;62.7873
31162;BME280;17796;49.296;-117.656;2023-02-19T04:16:47;96400;;;0.00995;65.6792
31162;BME280;17796;49.296;-117.656;2023-02-19T04:31:54;96500;;;-0.68583;68.56381
31162;BME280;17796;49.296;-117.656;2023-02-19T04:46:58;96400;;;0.1881;65.35676
31162;BME280;17796;49.296;-117.656;2023-02-19T05:02:03;96400;;;0.90452;60.96895
31162;BME280;17796;49.296;-117.656;2023-02-19T05:17:10;96400;;;0.54536;63.25601
31162;BME280;17796;49.296;-117.656;2023-02-19T05:32:14;96400;;;0.67969;63.5224
31162;BME280;17796;49.296;-117.656;2023-02-19T05:47:18;96400;;;0.42087;63.87414
31162;BME280;17796;49.296;-117.656;2023-02-19T06:02:21;96400;;;0.19509;64.9295
31162;BME280;17796;49.296;-117.656;2023-02-19T06:17:25;96400;;;0.3237;64.16434
31162;BME280;17796;49.296;-117.656;2023-02-19T06:32:28;96400;;;0.38118;62.91107
31162;BME280;17796;49.296;-117.656;2023-02-19T06:47:33;96400;;;-0.22791;64.2936
31162;BME280;17796;49.296;-117.656;2023-02-19T07:02:36;96400;;;-1.51561;69.89843
31162;BME280;17796;49.296;-117.656;2023-02-19T07:17:40;96400;;;-0.07167;63.15777
31162;BME280;17796;49.296;-117.656;2023-02-19T07:32:45;96400;;;0.01725;62.8451
31162;BME280;17796;49.296;-117.656;2023-02-19T07:47:48;96400;;;0.1754;62.60776
31162;BME280;17796;49.296;-117.656;2023-02-19T08:02:52;96400;;;-0.25966;63.2339
31162;BME280;17796;49.296;-117.656;2023-02-19T08:17:56;96400;;;0.08648;62.61888
31162;BME280;17796;49.296;-117.656;2023-02-19T08:33:00;96400;;;-0.3019;63.97107
31162;BME280;17796;49.296;-117.656;2023-02-19T08:48:05;96400;;;-0.02594;63.358
31162;BME280;17796;49.296;-117.656;2023-02-19T09:03:09;96400;;;-0.34763;63.90242
31162;BME280;17796;49.296;-117.656;2023-02-19T09:18:13;96400;;;-0.28824;63.64864
31162;BME280;17796;49.296;-117.656;2023-02-19T09:33:16;96400;;;0.12935;61.88613
31162;BME280;17796;49.296;-117.656;2023-02-19T09:48:22;96400;;;0.10394;61.26446
31162;BME280;17796;49.296;-117.656;2023-02-19T10:03:27;96400;;;-0.27173;62.19713
31162;BME280;17796;49.296;-117.656;2023-02-19T10:18:35;96300;;;-0.78904;64.66793
31162;BME280;17796;49.296;-117.656;2023-02-19T10:33:47;96300;;;-0.25649;62.72433
31162;BME280;17796;49.296;-117.656;2023-02-19T10:48:52;96300;;;-0.87859;63.40359
31162;BME280;17796;49.296;-117.656;2023-02-19T11:04:13;96300;;;-0.56579;62.70011
31162;BME280;17796;49.296;-117.656;2023-02-19T11:19:21;96300;;;-0.33429;61.8042
31162;BME280;17796;49.296;-117.656;2023-02-19T11:34:28;96300;;;-2.2498;67.98939
31162;BME280;17796;49.296;-117.656;2023-02-19T11:49:34;96300;;;-2.03513;65.03352
31162;BME280;17796;49.296;-117.656;2023-02-19T12:04:53;96300;;;-0.15487;58.9999
31162;BME280;17796;49.296;-117.656;2023-02-19T12:20:15;96200;;;-0.67535;61.40077
31162;BME280;17796;49.296;-117.656;2023-02-19T12:35:29;96200;;;-0.37716;60.66678
31162;BME280;17796;49.296;-117.656;2023-02-19T12:50:46;96200;;;-0.76713;61.68008
31162;BME280;17796;49.296;-117.656;2023-02-19T13:05:58;96200;;;-0.55881;61.29788
31162;BME280;17796;49.296;-117.656;2023-02-19T13:21:07;96200;;;-0.79444;60.89545
31162;BME280;17796;49.296;-117.656;2023-02-19T13:36:14;96200;;;-0.99545;62.1541
31162;BME280;17796;49.296;-117.656;2023-02-19T13:51:37;96200;;;-0.50736;59.05292
31162;BME280;17796;49.296;-117.656;2023-02-19T14:07:19;96200;;;-1.04023;62.02556
31162;BME280;17796;49.296;-117.656;2023-02-19T14:23:26;96100;;;-0.64074;60.69042
31162;BME280;17796;49.296;-117.656;2023-02-19T14:38:32;96200;;;-0.74807;61.25415
31162;BME280;17796;49.296;-117.656;2023-02-19T14:53:42;96100;;;-0.53658;59.84102
31162;BME280;17796;49.296;-117.656;2023-02-19T15:08:47;96200;;;-1.16852;62.14378
31162;BME280;17796;49.296;-117.656;2023-02-19T15:23:54;96100;;;-0.22283;59.67137
31162;BME280;17796;49.296;-117.656;2023-02-19T15:39:01;96100;;;0.02678;58.58093
31162;BME280;17796;49.296;-117.656;2023-02-19T15:54:07;96200;;;0.42818;56.25856
31162;BME280;17796;49.296;-117.656;2023-02-19T16:09:20;96200;;;0.6311;56.50986
31162;BME280;17796;49.296;-117.656;2023-02-19T16:24:27;96100;;;0.78607;56.32973
31162;BME280;17796;49.296;-117.656;2023-02-19T16:39:32;96100;;;1.18652;56.1273
31162;BME280;17796;49.296;-117.656;2023-02-19T16:54:36;96100;;;1.54823;55.5255
31162;BME280;17796;49.296;-117.656;2023-02-19T17:09:40;96100;;;1.37293;52.8258
31162;BME280;17796;49.296;-117.656;2023-02-19T17:24:43;96100;;;1.78418;52.73586
31162;BME280;17796;49.296;-117.656;2023-02-19T17:39:48;96100;;;1.77339;53.60267
31162;BME280;17796;49.296;-117.656;2023-02-19T17:54:51;96000;;;2.20528;53.43116
31162;BME280;17796;49.296;-117.656;2023-02-19T18:09:55;96000;;;1.08046;50.27162
31162;BME280;17796;49.296;-117.656;2023-02-19T18:24:59;96100;;;1.45772;54.28037
31162;BME280;17796;49.296;-117.656;2023-02-19T18:40:03;96000;;;2.76325;50.23972
31162;BME280;17796;49.296;-117.656;2023-02-19T18:55:09;96000;;;1.93725;49.1086
31162;BME280;17796;49.296;-117.656;2023-02-19T19:10:14;96000;;;2.61114;46.89892
31162;BME280;17796;49.296;-117.656;2023-02-19T19:25:18;96000;;;2.61272;45.90077
31162;BME280;17796;49.296;-117.656;2023-02-19T19:40:23;96000;;;3.80013;44.57233
31162;BME280;17796;49.296;-117.656;2023-02-19T19:55:26;96000;;;3.51146;44.48422
31162;BME280;17796;49.296;-117.656;2023-02-19T20:10:30;96000;;;3.81252;43.47067
31162;BME280;17796;49.296;-117.656;2023-02-19T20:25:33;95900;;;4.46196;44.54955
31162;BME280;17796;49.296;-117.656;2023-02-19T20:40:37;95900;;;3.88905;45.19699
31162;BME280;17796;49.296;-117.656;2023-02-19T20:55:41;95900;;;4.48356;43.99815
31162;BME280;17796;49.296;-117.656;2023-02-19T21:10:45;95900;;;4.33811;43.46666
31162;BME280;17796;49.296;-117.656;2023-02-19T21:25:49;95900;;;5.11681;42.45521
31162;BME280;17796;49.296;-117.656;2023-02-19T21:40:54;95800;;;4.24887;44.12283
31162;BME280;17796;49.296;-117.656;2023-02-19T21:55:58;95800;;;4.09993;43.91455
31162;BME280;17796;49.296;-117.656;2023-02-19T22:11:01;95800;;;4.0869;45.31181
31162;BME280;17796;49.296;-117.656;2023-02-19T22:26:06;95800;;;4.16471;46.04801
31162;BME280;17796;49.296;-117.656;2023-02-19T22:41:10;95800;;;3.87095;46.5484
31162;BME280;17796;49.296;-117.656;2023-02-19T22:56:14;95800;;;4.13803;47.2328
31162;BME280;17796;49.296;-117.656;2023-02-19T23:11:20;95800;;;4.30953;45.43272
31162;BME280;17796;49.296;-117.656;2023-02-19T23:26:25;95800;;;4.05705;46.34082
31162;BME280;17796;49.296;-117.656;2023-02-19T23:41:29;95800;;;4.38702;45.22802
31162;BME280;17796;49.296;-117.656;2023-02-19T23:56:34;95800;;;4.82623;44.12027
